sensor_id;sensor_type;location;lat;lon;timestamp;pressure;altitude;pressure_sealevel;temperature;humidity
85189;BME280;75559;49.132;8.922;2024-02-14T00:01:14;99787.50;;;1.93;98.58
85189;BME280;75559;49.132;8.922;2024-02-14T00:03:39;99783.09;;;1.90;98.91
85189;BME280;75559;49.132;8.922;2024-02-14T00:06:05;99793.53;;;1.80;98.26
85189;BME280;75559;49.132;8.922;2024-02-14T00:08:31;99791.63;;;1.65;98.14
85189;BME280;75559;49.132;8.922;2024-02-14T00:10:56;99793.31;;;1.58;98.64
85189;BME280;75559;49.132;8.922;2024-02-14T00:13:21;99788.00;;;1.46;98.57
85189;BME280;75559;49.132;8.922;2024-02-14T00:15:47;99789.72;;;1.46;98.91
85189;BME280;75559;49.132;8.922;2024-02-14T00:18:13;99765.13;;;1.30;98.55
85189;BME280;75559;49.132;8.922;2024-02-14T00:20:38;99789.66;;;1.38;98.63
85189;BME280;75559;49.132;8.922;2024-02-14T00:23:04;99768.63;;;1.29;99.07
85189;BME280;75559;49.132;8.922;2024-02-14T00:25:30;99792.25;;;1.34;98.99
85189;BME280;75559;49.132;8.922;2024-02-14T00:27:55;99791.38;;;1.35;99.26
85189;BME280;75559;49.132;8.922;2024-02-14T00:30:21;99787.88;;;1.33;99.56
85189;BME280;75559;49.132;8.922;2024-02-14T00:32:48;99792.25;;;1.34;98.91
85189;BME280;75559;49.132;8.922;2024-02-14T00:35:14;99798.47;;;1.45;98.96
85189;BME280;75559;49.132;8.922;2024-02-14T00:37:39;99800.31;;;1.56;99.70
85189;BME280;75559;49.132;8.922;2024-02-14T00:40:05;99775.81;;;1.56;99.71
85189;BME280;75559;49.132;8.922;2024-02-14T00:42:31;99808.41;;;1.81;99.70
85189;BME280;75559;49.132;8.922;2024-02-14T00:44:56;99791.88;;;1.96;99.49
85189;BME280;75559;49.132;8.922;2024-02-14T00:47:21;99794.59;;;2.09;99.41
85189;BME280;75559;49.132;8.922;2024-02-14T00:49:47;99799.91;;;2.23;99.62
85189;BME280;75559;49.132;8.922;2024-02-14T00:52:12;99809.63;;;2.35;99.68
85189;BME280;75559;49.132;8.922;2024-02-14T00:54:38;99796.53;;;2.42;99.29
85189;BME280;75559;49.132;8.922;2024-02-14T00:57:03;99792.19;;;2.44;99.29
85189;BME280;75559;49.132;8.922;2024-02-14T00:59:28;99799.25;;;2.59;99.41
85189;BME280;75559;49.132;8.922;2024-02-14T01:01:54;99800.16;;;2.64;98.59
85189;BME280;75559;49.132;8.922;2024-02-14T01:04:20;99798.41;;;2.72;98.29
85189;BME280;75559;49.132;8.922;2024-02-14T01:06:45;99792.28;;;2.75;98.20
85189;BME280;75559;49.132;8.922;2024-02-14T01:09:10;99799.31;;;2.79;98.22
85189;BME280;75559;49.132;8.922;2024-02-14T01:11:36;99797.56;;;2.81;98.06
85189;BME280;75559;49.132;8.922;2024-02-14T01:14:04;99804.59;;;2.83;98.58
85189;BME280;75559;49.132;8.922;2024-02-14T01:16:29;99795.88;;;2.89;98.30
85189;BME280;75559;49.132;8.922;2024-02-14T01:18:54;99798.53;;;2.97;98.13
85189;BME280;75559;49.132;8.922;2024-02-14T01:21:20;99787.16;;;3.04;98.31
85189;BME280;75559;49.132;8.922;2024-02-14T01:23:45;99792.41;;;3.05;97.12
85189;BME280;75559;49.132;8.922;2024-02-14T01:26:10;99781.91;;;3.05;97.27
85189;BME280;75559;49.132;8.922;2024-02-14T01:28:36;99783.66;;;3.09;96.93
85189;BME280;75559;49.132;8.922;2024-02-14T01:31:01;99780.16;;;3.12;96.91
85189;BME280;75559;49.132;8.922;2024-02-14T01:33:27;99782.78;;;3.16;97.68
85189;BME280;75559;49.132;8.922;2024-02-14T01:35:55;99775.78;;;3.22;97.78
85189;BME280;75559;49.132;8.922;2024-02-14T01:38:21;99774.03;;;3.30;97.87
85189;BME280;75559;49.132;8.922;2024-02-14T01:40:47;99777.56;;;3.35;96.86
85189;BME280;75559;49.132;8.922;2024-02-14T01:43:13;99775.81;;;3.38;97.35
85189;BME280;75559;49.132;8.922;2024-02-14T01:45:40;99778.44;;;3.43;97.34
85189;BME280;75559;49.132;8.922;2024-02-14T01:48:09;99769.66;;;3.45;96.27
85189;BME280;75559;49.132;8.922;2024-02-14T01:50:35;99771.44;;;3.51;97.89
85189;BME280;75559;49.132;8.922;2024-02-14T01:53:01;99773.22;;;3.52;96.88
85189;BME280;75559;49.132;8.922;2024-02-14T01:55:27;99766.19;;;3.54;96.34
85189;BME280;75559;49.132;8.922;2024-02-14T01:57:54;99760.94;;;3.57;96.66
85189;BME280;75559;49.132;8.922;2024-02-14T02:00:20;99751.28;;;3.55;96.04
85189;BME280;75559;49.132;8.922;2024-02-14T02:02:45;99725.81;;;3.44;96.03
85189;BME280;75559;49.132;8.922;2024-02-14T02:05:12;99745.13;;;3.59;97.00
85189;BME280;75559;49.132;8.922;2024-02-14T02:07:38;99737.25;;;3.59;96.10
85189;BME280;75559;49.132;8.922;2024-02-14T02:10:08;99725.84;;;3.52;95.93
85189;BME280;75559;49.132;8.922;2024-02-14T02:12:34;99742.50;;;3.66;97.06
85189;BME280;75559;49.132;8.922;2024-02-14T02:14:59;99739.00;;;3.66;96.31
85189;BME280;75559;49.132;8.922;2024-02-14T02:17:25;99734.59;;;3.66;95.66
85189;BME280;75559;49.132;8.922;2024-02-14T02:19:53;99737.25;;;3.68;95.96
85189;BME280;75559;49.132;8.922;2024-02-14T02:22:19;99726.72;;;3.69;96.30
85189;BME280;75559;49.132;8.922;2024-02-14T02:24:45;99724.94;;;3.73;96.15
85189;BME280;75559;49.132;8.922;2024-02-14T02:27:11;99733.72;;;3.76;96.10
85189;BME280;75559;49.132;8.922;2024-02-14T02:29:38;99729.31;;;3.78;96.85
85189;BME280;75559;49.132;8.922;2024-02-14T02:32:03;99700.38;;;3.71;96.73
85189;BME280;75559;49.132;8.922;2024-02-14T02:34:31;99726.69;;;3.81;96.34
85189;BME280;75559;49.132;8.922;2024-02-14T02:36:56;99720.56;;;3.73;96.67
85189;BME280;75559;49.132;8.922;2024-02-14T02:39:22;99710.94;;;3.59;96.66
85189;BME280;75559;49.132;8.922;2024-02-14T02:41:47;99716.19;;;3.60;96.88
85189;BME280;75559;49.132;8.922;2024-02-14T02:44:14;99710.94;;;3.51;96.89
85189;BME280;75559;49.132;8.922;2024-02-14T02:46:39;99705.66;;;3.42;96.43
85189;BME280;75559;49.132;8.922;2024-02-14T02:49:05;99712.69;;;3.28;96.67
85189;BME280;75559;49.132;8.922;2024-02-14T02:51:30;99707.41;;;3.05;97.21
85189;BME280;75559;49.132;8.922;2024-02-14T02:53:56;99719.66;;;2.91;97.35
85189;BME280;75559;49.132;8.922;2024-02-14T02:56:22;99727.50;;;2.74;97.35
85189;BME280;75559;49.132;8.922;2024-02-14T02:58:53;99722.19;;;2.56;97.57
85189;BME280;75559;49.132;8.922;2024-02-14T03:01:18;99714.25;;;2.43;97.71
85189;BME280;75559;49.132;8.922;2024-02-14T03:03:44;99728.25;;;2.38;98.19
85189;BME280;75559;49.132;8.922;2024-02-14T03:06:09;99722.03;;;2.25;97.88
85189;BME280;75559;49.132;8.922;2024-02-14T03:08:37;99734.25;;;2.18;97.97
85189;BME280;75559;49.132;8.922;2024-02-14T03:11:06;99713.22;;;2.05;98.70
85189;BME280;75559;49.132;8.922;2024-02-14T03:13:32;99739.50;;;2.18;98.90
85189;BME280;75559;49.132;8.922;2024-02-14T03:15:57;99738.69;;;2.30;99.49
85189;BME280;75559;49.132;8.922;2024-02-14T03:18:24;99737.00;;;2.40;99.35
85189;BME280;75559;49.132;8.922;2024-02-14T03:20:50;99731.84;;;2.63;99.85
85189;BME280;75559;49.132;8.922;2024-02-14T03:23:15;99729.25;;;2.81;99.76
85189;BME280;75559;49.132;8.922;2024-02-14T03:25:41;99726.69;;;2.98;99.57
85189;BME280;75559;49.132;8.922;2024-02-14T03:28:07;99731.97;;;3.10;98.99
85189;BME280;75559;49.132;8.922;2024-02-14T03:30:34;99738.97;;;3.20;99.20
85189;BME280;75559;49.132;8.922;2024-02-14T03:33:02;99730.22;;;3.26;98.71
85189;BME280;75559;49.132;8.922;2024-02-14T03:35:28;99733.72;;;3.32;98.58
85189;BME280;75559;49.132;8.922;2024-02-14T03:37:54;99722.31;;;3.41;98.17
85189;BME280;75559;49.132;8.922;2024-02-14T03:40:19;99717.97;;;3.51;98.15
85189;BME280;75559;49.132;8.922;2024-02-14T03:42:48;99726.72;;;3.62;97.68
85189;BME280;75559;49.132;8.922;2024-02-14T03:45:13;99731.09;;;3.72;96.71
85189;BME280;75559;49.132;8.922;2024-02-14T03:47:39;99730.19;;;3.85;96.00
85189;BME280;75559;49.132;8.922;2024-02-14T03:50:05;99724.91;;;3.94;94.71
85189;BME280;75559;49.132;8.922;2024-02-14T03:52:32;99709.72;;;4.69;87.40
85189;BME280;75559;49.132;8.922;2024-02-14T03:55:00;99729.63;;;5.21;86.63
85189;BME280;75559;49.132;8.922;2024-02-14T03:57:26;99730.34;;;5.41;83.95
85189;BME280;75559;49.132;8.922;2024-02-14T03:59:55;99727.63;;;5.52;82.69
85189;BME280;75559;49.132;8.922;2024-02-14T04:02:22;99728.13;;;5.96;79.73
85189;BME280;75559;49.132;8.922;2024-02-14T04:04:48;99728.78;;;6.18;79.00
85189;BME280;75559;49.132;8.922;2024-02-14T04:07:14;99718.78;;;6.45;76.87
85189;BME280;75559;49.132;8.922;2024-02-14T04:09:39;99724.16;;;6.37;78.36
85189;BME280;75559;49.132;8.922;2024-02-14T04:12:05;99732.72;;;6.57;76.55
85189;BME280;75559;49.132;8.922;2024-02-14T04:14:31;99720.53;;;6.46;77.29
85189;BME280;75559;49.132;8.922;2024-02-14T04:16:56;99740.63;;;6.59;76.79
85189;BME280;75559;49.132;8.922;2024-02-14T04:19:21;99735.56;;;6.42;77.75
85189;BME280;75559;49.132;8.922;2024-02-14T04:21:47;99741.88;;;6.27;78.19
85189;BME280;75559;49.132;8.922;2024-02-14T04:24:13;99742.97;;;6.08;80.76
85189;BME280;75559;49.132;8.922;2024-02-14T04:26:39;99750.06;;;6.03;82.98
85189;BME280;75559;49.132;8.922;2024-02-14T04:29:04;99748.41;;;5.93;83.61
85189;BME280;75559;49.132;8.922;2024-02-14T04:31:29;99744.06;;;5.84;83.76
85189;BME280;75559;49.132;8.922;2024-02-14T04:33:57;99748.53;;;5.79;83.88
85189;BME280;75559;49.132;8.922;2024-02-14T04:36:22;99747.69;;;5.71;85.81
85189;BME280;75559;49.132;8.922;2024-02-14T04:38:50;99747.75;;;5.62;85.64
85189;BME280;75559;49.132;8.922;2024-02-14T04:41:16;99762.81;;;5.52;87.13
85189;BME280;75559;49.132;8.922;2024-02-14T04:43:42;99756.69;;;5.47;87.48
85189;BME280;75559;49.132;8.922;2024-02-14T04:46:07;99753.19;;;5.45;87.66
85189;BME280;75559;49.132;8.922;2024-02-14T04:48:37;99741.81;;;5.37;87.67
85189;BME280;75559;49.132;8.922;2024-02-14T04:51:04;99759.34;;;5.46;87.94
85189;BME280;75559;49.132;8.922;2024-02-14T04:53:32;99760.22;;;5.46;88.44
85189;BME280;75559;49.132;8.922;2024-02-14T04:55:58;99760.19;;;5.48;87.40
85189;BME280;75559;49.132;8.922;2024-02-14T04:58:23;99744.47;;;5.37;87.56
85189;BME280;75559;49.132;8.922;2024-02-14T05:00:48;99761.97;;;5.47;88.68
85189;BME280;75559;49.132;8.922;2024-02-14T05:03:14;99765.47;;;5.49;89.19
85189;BME280;75559;49.132;8.922;2024-02-14T05:05:40;99733.03;;;5.35;89.08
85189;BME280;75559;49.132;8.922;2024-02-14T05:08:06;99751.41;;;5.46;88.07
85189;BME280;75559;49.132;8.922;2024-02-14T05:10:31;99747.00;;;5.49;87.25
85189;BME280;75559;49.132;8.922;2024-02-14T05:12:57;99749.59;;;5.52;88.27
85189;BME280;75559;49.132;8.922;2024-02-14T05:15:23;99744.31;;;5.55;87.24
85189;BME280;75559;49.132;8.922;2024-02-14T05:17:49;99735.47;;;5.59;86.10
85189;BME280;75559;49.132;8.922;2024-02-14T05:20:15;99742.47;;;5.65;86.32
85189;BME280;75559;49.132;8.922;2024-02-14T05:22:41;99742.47;;;5.65;86.65
85189;BME280;75559;49.132;8.922;2024-02-14T05:25:06;99734.56;;;5.63;86.77
85189;BME280;75559;49.132;8.922;2024-02-14T05:27:36;99750.41;;;5.60;87.59
85189;BME280;75559;49.132;8.922;2024-02-14T05:30:03;99724.13;;;5.50;88.51
85189;BME280;75559;49.132;8.922;2024-02-14T05:32:32;99745.13;;;5.63;89.15
85189;BME280;75559;49.132;8.922;2024-02-14T05:34:58;99753.94;;;5.61;88.40
85189;BME280;75559;49.132;8.922;2024-02-14T05:37:23;99753.13;;;5.51;88.91
85189;BME280;75559;49.132;8.922;2024-02-14T05:39:49;99759.31;;;5.47;89.36
85189;BME280;75559;49.132;8.922;2024-02-14T05:42:14;99732.19;;;5.30;89.07
85189;BME280;75559;49.132;8.922;2024-02-14T05:44:41;99749.78;;;5.31;89.28
85189;BME280;75559;49.132;8.922;2024-02-14T05:47:08;99748.03;;;5.28;89.15
85189;BME280;75559;49.132;8.922;2024-02-14T05:49:34;99746.34;;;5.14;88.85
85189;BME280;75559;49.132;8.922;2024-02-14T05:51:59;99747.41;;;4.87;90.71
85189;BME280;75559;49.132;8.922;2024-02-14T05:54:25;99753.66;;;4.69;92.51
85189;BME280;75559;49.132;8.922;2024-02-14T05:56:50;99747.53;;;4.67;92.31
85189;BME280;75559;49.132;8.922;2024-02-14T05:59:16;99746.63;;;4.62;91.26
85189;BME280;75559;49.132;8.922;2024-02-14T06:01:41;99738.78;;;4.48;91.81
85189;BME280;75559;49.132;8.922;2024-02-14T06:04:07;99748.53;;;4.31;92.71
85189;BME280;75559;49.132;8.922;2024-02-14T06:06:32;99747.69;;;4.17;93.50
85189;BME280;75559;49.132;8.922;2024-02-14T06:08:57;99744.19;;;3.99;93.66
85189;BME280;75559;49.132;8.922;2024-02-14T06:11:23;99746.00;;;3.82;94.09
85189;BME280;75559;49.132;8.922;2024-02-14T06:13:49;99763.53;;;3.69;94.63
85189;BME280;75559;49.132;8.922;2024-02-14T06:16:14;99770.56;;;3.64;95.62
85189;BME280;75559;49.132;8.922;2024-02-14T06:18:40;99770.56;;;3.73;96.00
85189;BME280;75559;49.132;8.922;2024-02-14T06:21:06;99761.78;;;3.84;96.51
85189;BME280;75559;49.132;8.922;2024-02-14T06:23:32;99767.03;;;4.08;96.02
85189;BME280;75559;49.132;8.922;2024-02-14T06:25:58;99779.28;;;4.24;94.79
85189;BME280;75559;49.132;8.922;2024-02-14T06:28:23;99776.59;;;4.35;94.22
85189;BME280;75559;49.132;8.922;2024-02-14T06:30:48;99779.22;;;4.44;93.49
85189;BME280;75559;49.132;8.922;2024-02-14T06:33:14;99780.03;;;4.57;92.63
85189;BME280;75559;49.132;8.922;2024-02-14T06:35:39;99783.56;;;4.65;92.93
85189;BME280;75559;49.132;8.922;2024-02-14T06:38:05;99786.16;;;4.74;91.93
85189;BME280;75559;49.132;8.922;2024-02-14T06:40:32;99771.22;;;4.71;91.68
85189;BME280;75559;49.132;8.922;2024-02-14T06:42:58;99793.97;;;4.88;91.65
85189;BME280;75559;49.132;8.922;2024-02-14T06:45:25;99781.72;;;4.82;91.93
85189;BME280;75559;49.132;8.922;2024-02-14T06:47:51;99799.19;;;5.01;91.47
85189;BME280;75559;49.132;8.922;2024-02-14T06:50:16;99802.66;;;5.06;91.11
85189;BME280;75559;49.132;8.922;2024-02-14T06:52:41;99792.97;;;5.13;91.33
85189;BME280;75559;49.132;8.922;2024-02-14T06:55:07;99806.13;;;5.18;90.27
85189;BME280;75559;49.132;8.922;2024-02-14T06:57:33;99807.88;;;5.23;90.88
85189;BME280;75559;49.132;8.922;2024-02-14T06:59:58;99817.50;;;5.29;90.38
85189;BME280;75559;49.132;8.922;2024-02-14T07:02:23;99817.50;;;5.29;91.54
85189;BME280;75559;49.132;8.922;2024-02-14T07:04:53;99821.91;;;5.31;91.26
85189;BME280;75559;49.132;8.922;2024-02-14T07:07:18;99824.53;;;5.34;90.43
85189;BME280;75559;49.132;8.922;2024-02-14T07:09:44;99821.88;;;5.34;91.16
85189;BME280;75559;49.132;8.922;2024-02-14T07:12:09;99828.00;;;5.38;90.40
85189;BME280;75559;49.132;8.922;2024-02-14T07:14:34;99824.47;;;5.39;90.77
85189;BME280;75559;49.132;8.922;2024-02-14T07:17:00;99820.91;;;5.46;89.75
85189;BME280;75559;49.132;8.922;2024-02-14T07:19:27;99832.34;;;5.48;89.33
85189;BME280;75559;49.132;8.922;2024-02-14T07:21:52;99835.84;;;5.52;89.96
85189;BME280;75559;49.132;8.922;2024-02-14T07:24:18;99834.03;;;5.55;90.55
85189;BME280;75559;49.132;8.922;2024-02-14T07:26:43;99833.16;;;5.58;90.06
85189;BME280;75559;49.132;8.922;2024-02-14T07:29:09;99839.22;;;5.69;89.95
85189;BME280;75559;49.132;8.922;2024-02-14T07:31:35;99837.41;;;5.77;88.46
85189;BME280;75559;49.132;8.922;2024-02-14T07:34:00;99835.59;;;5.85;88.45
85189;BME280;75559;49.132;8.922;2024-02-14T07:36:28;99835.56;;;5.96;88.78
85189;BME280;75559;49.132;8.922;2024-02-14T07:38:54;99845.19;;;6.01;89.99
85189;BME280;75559;49.132;8.922;2024-02-14T07:41:19;99846.00;;;6.08;88.48
85189;BME280;75559;49.132;8.922;2024-02-14T07:43:44;99850.34;;;6.15;88.44
85189;BME280;75559;49.132;8.922;2024-02-14T07:46:09;99854.69;;;6.22;86.66
85189;BME280;75559;49.132;8.922;2024-02-14T07:48:36;99844.09;;;6.25;86.21
85189;BME280;75559;49.132;8.922;2024-02-14T07:51:02;99849.28;;;6.36;86.83
85189;BME280;75559;49.132;8.922;2024-02-14T07:53:27;99850.13;;;6.41;86.49
85189;BME280;75559;49.132;8.922;2024-02-14T07:55:52;99855.34;;;6.46;86.19
85189;BME280;75559;49.132;8.922;2024-02-14T07:58:19;99851.72;;;6.56;85.32
85189;BME280;75559;49.132;8.922;2024-02-14T08:00:45;99849.88;;;6.64;84.83
85189;BME280;75559;49.132;8.922;2024-02-14T08:03:10;99848.03;;;6.72;84.77
85189;BME280;75559;49.132;8.922;2024-02-14T08:05:35;99847.88;;;6.84;84.80
85189;BME280;75559;49.132;8.922;2024-02-14T08:08:01;99821.47;;;6.80;84.27
85189;BME280;75559;49.132;8.922;2024-02-14T08:10:26;99849.47;;;7.01;83.79
85189;BME280;75559;49.132;8.922;2024-02-14T08:12:52;99847.63;;;7.07;82.47
85189;BME280;75559;49.132;8.922;2024-02-14T08:15:17;99848.38;;;7.15;81.58
85189;BME280;75559;49.132;8.922;2024-02-14T08:17:42;99842.97;;;7.24;80.64
85189;BME280;75559;49.132;8.922;2024-02-14T08:20:08;99849.09;;;7.28;83.11
85189;BME280;75559;49.132;8.922;2024-02-14T08:22:34;99847.25;;;7.33;82.31
85189;BME280;75559;49.132;8.922;2024-02-14T08:24:59;99840.03;;;7.44;80.71
85189;BME280;75559;49.132;8.922;2024-02-14T08:27:25;99842.38;;;7.67;77.94
85189;BME280;75559;49.132;8.922;2024-02-14T08:29:51;99841.13;;;7.89;77.10
85189;BME280;75559;49.132;8.922;2024-02-14T08:32:16;99846.97;;;8.11;74.25
85189;BME280;75559;49.132;8.922;2024-02-14T08:34:43;99842.44;;;8.18;73.53
85189;BME280;75559;49.132;8.922;2024-02-14T08:37:08;99838.84;;;8.22;73.56
85189;BME280;75559;49.132;8.922;2024-02-14T08:39:34;99846.81;;;8.20;74.16
85189;BME280;75559;49.132;8.922;2024-02-14T08:41:59;99839.56;;;8.30;73.34
85189;BME280;75559;49.132;8.922;2024-02-14T08:44:28;99844.59;;;8.47;72.47
85189;BME280;75559;49.132;8.922;2024-02-14T08:46:53;99846.09;;;8.62;72.31
85189;BME280;75559;49.132;8.922;2024-02-14T08:49:19;99847.56;;;8.78;72.59
85189;BME280;75559;49.132;8.922;2024-02-14T08:51:45;99843.25;;;8.72;73.02
85189;BME280;75559;49.132;8.922;2024-02-14T08:54:11;99851.25;;;8.71;74.10
85189;BME280;75559;49.132;8.922;2024-02-14T08:56:37;99854.81;;;8.70;72.42
85189;BME280;75559;49.132;8.922;2024-02-14T08:59:03;99848.47;;;8.77;72.51
85189;BME280;75559;49.132;8.922;2024-02-14T09:01:29;99859.13;;;8.75;71.68
85189;BME280;75559;49.132;8.922;2024-02-14T09:03:55;99850.19;;;8.79;73.28
85189;BME280;75559;49.132;8.922;2024-02-14T09:06:20;99856.31;;;8.83;71.96
85189;BME280;75559;49.132;8.922;2024-02-14T09:08:46;99843.94;;;8.82;72.17
85189;BME280;75559;49.132;8.922;2024-02-14T09:11:11;99848.13;;;8.94;71.73
85189;BME280;75559;49.132;8.922;2024-02-14T09:13:37;99852.28;;;9.07;70.95
85189;BME280;75559;49.132;8.922;2024-02-14T09:16:03;99855.69;;;9.13;69.99
85189;BME280;75559;49.132;8.922;2024-02-14T09:18:28;99852.81;;;9.23;71.08
85189;BME280;75559;49.132;8.922;2024-02-14T09:20:56;99855.25;;;9.35;70.63
85189;BME280;75559;49.132;8.922;2024-02-14T09:23:22;99850.75;;;9.38;70.25
85189;BME280;75559;49.132;8.922;2024-02-14T09:25:48;99842.59;;;9.46;70.05
85189;BME280;75559;49.132;8.922;2024-02-14T09:28:17;99850.22;;;9.61;69.67
85189;BME280;75559;49.132;8.922;2024-02-14T09:30:42;99837.59;;;9.71;68.75
85189;BME280;75559;49.132;8.922;2024-02-14T09:33:08;99841.13;;;9.71;69.38
85189;BME280;75559;49.132;8.922;2024-02-14T09:35:34;99837.56;;;9.72;68.80
85189;BME280;75559;49.132;8.922;2024-02-14T09:38:00;99846.22;;;9.80;69.03
85189;BME280;75559;49.132;8.922;2024-02-14T09:40:26;99841.69;;;9.86;68.60
85189;BME280;75559;49.132;8.922;2024-02-14T09:42:54;99835.50;;;9.85;68.22
85189;BME280;75559;49.132;8.922;2024-02-14T09:45:26;99827.41;;;9.90;69.59
85189;BME280;75559;49.132;8.922;2024-02-14T09:47:53;99834.22;;;10.01;67.57
85189;BME280;75559;49.132;8.922;2024-02-14T09:50:19;99829.56;;;10.09;68.10
85189;BME280;75559;49.132;8.922;2024-02-14T09:52:49;99832.88;;;10.19;67.10
85189;BME280;75559;49.132;8.922;2024-02-14T09:55:15;99827.44;;;10.25;67.12
85189;BME280;75559;49.132;8.922;2024-02-14T09:57:42;99838.41;;;10.47;67.40
85189;BME280;75559;49.132;8.922;2024-02-14T10:00:11;99824.69;;;10.62;67.04
85189;BME280;75559;49.132;8.922;2024-02-14T10:02:39;99832.44;;;11.02;66.11
85189;BME280;75559;49.132;8.922;2024-02-14T10:05:05;99833.38;;;11.31;66.01
85189;BME280;75559;49.132;8.922;2024-02-14T10:07:39;99833.28;;;11.34;64.59
85189;BME280;75559;49.132;8.922;2024-02-14T10:10:07;99831.63;;;11.30;63.49
85189;BME280;75559;49.132;8.922;2024-02-14T10:12:33;99842.41;;;11.25;65.89
85189;BME280;75559;49.132;8.922;2024-02-14T10:14:58;99837.03;;;11.27;65.41
85189;BME280;75559;49.132;8.922;2024-02-14T10:17:24;99844.97;;;11.28;64.82
85189;BME280;75559;49.132;8.922;2024-02-14T10:20:00;99839.63;;;11.30;65.47
85189;BME280;75559;49.132;8.922;2024-02-14T10:22:37;99849.25;;;11.34;67.32
85189;BME280;75559;49.132;8.922;2024-02-14T10:25:03;99840.28;;;11.36;64.83
85189;BME280;75559;49.132;8.922;2024-02-14T10:27:32;99846.09;;;11.21;65.33
85189;BME280;75559;49.132;8.922;2024-02-14T10:29:57;99852.09;;;10.97;66.92
85189;BME280;75559;49.132;8.922;2024-02-14T10:32:24;99849.56;;;10.92;66.83
85189;BME280;75559;49.132;8.922;2024-02-14T10:34:49;99859.91;;;11.04;68.16
85189;BME280;75559;49.132;8.922;2024-02-14T10:37:17;99851.56;;;11.17;68.00
85189;BME280;75559;49.132;8.922;2024-02-14T10:39:44;99825.22;;;11.06;67.58
85189;BME280;75559;49.132;8.922;2024-02-14T10:42:12;99862.66;;;11.31;67.90
85189;BME280;75559;49.132;8.922;2024-02-14T10:44:37;99863.03;;;11.19;68.31
85189;BME280;75559;49.132;8.922;2024-02-14T10:47:05;99868.31;;;11.20;68.37
85189;BME280;75559;49.132;8.922;2024-02-14T10:49:33;99871.59;;;11.30;68.70
85189;BME280;75559;49.132;8.922;2024-02-14T10:51:59;99866.63;;;11.47;68.54
85189;BME280;75559;49.132;8.922;2024-02-14T10:54:29;99869.03;;;11.56;67.87
85189;BME280;75559;49.132;8.922;2024-02-14T10:56:58;99880.28;;;11.66;68.20
85189;BME280;75559;49.132;8.922;2024-02-14T10:59:24;99878.41;;;11.69;68.49
85189;BME280;75559;49.132;8.922;2024-02-14T11:01:51;99874.91;;;11.67;69.38
85189;BME280;75559;49.132;8.922;2024-02-14T11:04:17;99870.00;;;11.83;69.52
85189;BME280;75559;49.132;8.922;2024-02-14T11:06:47;99884.50;;;11.73;70.49
85189;BME280;75559;49.132;8.922;2024-02-14T11:09:14;99870.53;;;12.22;69.96
85189;BME280;75559;49.132;8.922;2024-02-14T11:11:42;99870.94;;;12.09;69.92
85189;BME280;75559;49.132;8.922;2024-02-14T11:14:08;99866.47;;;11.83;71.04
85189;BME280;75559;49.132;8.922;2024-02-14T11:16:34;99870.09;;;11.80;73.26
85189;BME280;75559;49.132;8.922;2024-02-14T11:19:12;99867.44;;;11.49;73.58
85189;BME280;75559;49.132;8.922;2024-02-14T11:24:13;99869.25;;;11.49;74.66
85189;BME280;75559;49.132;8.922;2024-02-14T11:26:47;99861.09;;;11.53;73.85
85189;BME280;75559;49.132;8.922;2024-02-14T11:29:14;99868.25;;;11.82;72.80
85189;BME280;75559;49.132;8.922;2024-02-14T11:31:41;99867.28;;;11.85;72.57
85189;BME280;75559;49.132;8.922;2024-02-14T11:34:08;99842.34;;;11.58;73.57
85189;BME280;75559;49.132;8.922;2024-02-14T11:36:36;99867.84;;;11.94;73.19
85189;BME280;75559;49.132;8.922;2024-02-14T11:39:03;99867.97;;;11.91;72.14
85189;BME280;75559;49.132;8.922;2024-02-14T11:41:29;99877.34;;;12.03;72.06
85189;BME280;75559;49.132;8.922;2024-02-14T11:43:54;99867.66;;;12.00;71.81
85189;BME280;75559;49.132;8.922;2024-02-14T11:46:19;99867.72;;;11.99;71.38
85189;BME280;75559;49.132;8.922;2024-02-14T11:48:46;99866.72;;;12.29;70.52
85189;BME280;75559;49.132;8.922;2024-02-14T11:51:11;99859.94;;;12.46;69.77
85189;BME280;75559;49.132;8.922;2024-02-14T11:53:36;99832.88;;;12.81;68.43
85189;BME280;75559;49.132;8.922;2024-02-14T11:56:05;99853.25;;;13.09;67.81
85189;BME280;75559;49.132;8.922;2024-02-14T11:58:30;99860.94;;;12.93;68.20
85189;BME280;75559;49.132;8.922;2024-02-14T12:00:56;99862.53;;;12.74;68.25
85189;BME280;75559;49.132;8.922;2024-02-14T12:03:22;99860.03;;;12.94;68.37
85189;BME280;75559;49.132;8.922;2024-02-14T12:05:52;99853.53;;;12.76;68.39
85189;BME280;75559;49.132;8.922;2024-02-14T12:08:18;99850.31;;;12.91;68.49
85189;BME280;75559;49.132;8.922;2024-02-14T12:10:45;99847.25;;;13.02;68.83
85189;BME280;75559;49.132;8.922;2024-02-14T12:13:20;99853.28;;;13.07;67.76
85189;BME280;75559;49.132;8.922;2024-02-14T12:15:50;99844.84;;;12.70;68.73
85189;BME280;75559;49.132;8.922;2024-02-14T12:18:17;99841.84;;;12.54;70.26
85189;BME280;75559;49.132;8.922;2024-02-14T12:20:46;99835.63;;;12.80;69.88
85189;BME280;75559;49.132;8.922;2024-02-14T12:23:15;99837.88;;;12.65;69.95
85189;BME280;75559;49.132;8.922;2024-02-14T12:25:44;99824.78;;;12.58;70.99
85189;BME280;75559;49.132;8.922;2024-02-14T12:28:16;99825.09;;;12.75;69.87
85189;BME280;75559;49.132;8.922;2024-02-14T12:30:51;99827.53;;;12.81;69.70
85189;BME280;75559;49.132;8.922;2024-02-14T12:33:23;99829.94;;;12.89;69.32
85189;BME280;75559;49.132;8.922;2024-02-14T12:35:50;99793.00;;;12.77;69.15
85189;BME280;75559;49.132;8.922;2024-02-14T12:38:17;99817.69;;;13.32;68.81
85189;BME280;75559;49.132;8.922;2024-02-14T12:40:43;99816.97;;;13.50;66.41
85189;BME280;75559;49.132;8.922;2024-02-14T12:43:10;99808.69;;;13.34;67.11
85189;BME280;75559;49.132;8.922;2024-02-14T12:45:39;99810.16;;;13.41;67.87
85189;BME280;75559;49.132;8.922;2024-02-14T12:48:05;99803.31;;;14.01;66.21
85189;BME280;75559;49.132;8.922;2024-02-14T12:50:31;99807.19;;;14.14;64.29
85189;BME280;75559;49.132;8.922;2024-02-14T12:52:57;99803.13;;;14.48;64.09
85189;BME280;75559;49.132;8.922;2024-02-14T12:55:23;99811.78;;;14.54;62.45
85189;BME280;75559;49.132;8.922;2024-02-14T12:57:53;99805.84;;;13.82;64.73
85189;BME280;75559;49.132;8.922;2024-02-14T13:00:19;99810.50;;;14.41;64.85
85189;BME280;75559;49.132;8.922;2024-02-14T13:02:44;99804.03;;;15.08;63.09
85189;BME280;75559;49.132;8.922;2024-02-14T13:05:10;99804.03;;;15.08;61.99